sensor_id;sensor_type;location;lat;lon;timestamp;P1;durP1;ratioP1;P2;durP2;ratioP2
76733;SDS011;65660;53.288;14.666;2023-02-11T00:04:40;32.80;;;15.70;;
76733;SDS011;65660;53.288;14.666;2023-02-11T00:09:41;29.97;;;14.47;;
76733;SDS011;65660;53.288;14.666;2023-02-11T00:14:41;35.43;;;15.73;;
76733;SDS011;65660;53.288;14.666;2023-02-11T00:19:41;31.63;;;15.43;;
76733;SDS011;65660;53.288;14.666;2023-02-11T00:24:42;32.03;;;15.00;;
76733;SDS011;65660;53.288;14.666;2023-02-11T00:29:42;33.30;;;16.87;;
76733;SDS011;65660;53.288;14.666;2023-02-11T00:34:43;31.53;;;16.27;;
76733;SDS011;65660;53.288;14.666;2023-02-11T00:39:43;38.83;;;16.57;;
76733;SDS011;65660;53.288;14.666;2023-02-11T00:44:44;33.60;;;16.50;;
76733;SDS011;65660;53.288;14.666;2023-02-11T00:49:44;37.43;;;17.00;;
76733;SDS011;65660;53.288;14.666;2023-02-11T00:54:45;35.80;;;17.57;;
76733;SDS011;65660;53.288;14.666;2023-02-11T00:59:45;32.73;;;16.07;;
76733;SDS011;65660;53.288;14.666;2023-02-11T01:04:46;41.43;;;19.27;;
76733;SDS011;65660;53.288;14.666;2023-02-11T01:09:46;40.67;;;18.17;;
76733;SDS011;65660;53.288;14.666;2023-02-11T01:14:47;44.33;;;19.17;;
76733;SDS011;65660;53.288;14.666;2023-02-11T01:19:47;39.63;;;18.77;;
76733;SDS011;65660;53.288;14.666;2023-02-11T01:24:48;35.97;;;18.27;;
76733;SDS011;65660;53.288;14.666;2023-02-11T01:29:48;37.90;;;19.20;;
76733;SDS011;65660;53.288;14.666;2023-02-11T01:34:49;37.13;;;19.30;;
76733;SDS011;65660;53.288;14.666;2023-02-11T01:39:49;39.60;;;19.53;;
76733;SDS011;65660;53.288;14.666;2023-02-11T01:44:50;39.20;;;19.60;;
76733;SDS011;65660;53.288;14.666;2023-02-11T01:49:54;40.33;;;19.27;;
76733;SDS011;65660;53.288;14.666;2023-02-11T01:54:58;40.50;;;20.23;;
76733;SDS011;65660;53.288;14.666;2023-02-11T02:10:34;41.87;;;20.13;;
76733;SDS011;65660;53.288;14.666;2023-02-11T02:15:36;44.20;;;21.13;;
76733;SDS011;65660;53.288;14.666;2023-02-11T02:31:27;44.37;;;21.60;;
76733;SDS011;65660;53.288;14.666;2023-02-11T02:41:33;45.30;;;21.83;;
76733;SDS011;65660;53.288;14.666;2023-02-11T02:46:35;47.07;;;21.73;;
76733;SDS011;65660;53.288;14.666;2023-02-11T02:51:55;47.03;;;21.17;;
76733;SDS011;65660;53.288;14.666;2023-02-11T02:57:29;42.17;;;20.73;;
76733;SDS011;65660;53.288;14.666;2023-02-11T03:02:38;43.20;;;21.93;;
76733;SDS011;65660;53.288;14.666;2023-02-11T03:07:44;48.00;;;22.10;;
76733;SDS011;65660;53.288;14.666;2023-02-11T03:12:52;48.37;;;23.13;;
76733;SDS011;65660;53.288;14.666;2023-02-11T03:17:54;48.30;;;22.70;;
76733;SDS011;65660;53.288;14.666;2023-02-11T03:23:01;50.63;;;23.27;;
76733;SDS011;65660;53.288;14.666;2023-02-11T03:28:11;45.63;;;22.63;;
76733;SDS011;65660;53.288;14.666;2023-02-11T03:33:23;47.20;;;22.57;;
76733;SDS011;65660;53.288;14.666;2023-02-11T03:38:28;48.60;;;23.50;;
76733;SDS011;65660;53.288;14.666;2023-02-11T03:43:43;50.83;;;23.33;;
76733;SDS011;65660;53.288;14.666;2023-02-11T03:48:47;53.00;;;23.47;;
76733;SDS011;65660;53.288;14.666;2023-02-11T03:53:49;48.60;;;24.03;;
76733;SDS011;65660;53.288;14.666;2023-02-11T03:58:52;53.30;;;24.77;;
76733;SDS011;65660;53.288;14.666;2023-02-11T04:03:52;53.47;;;24.20;;
76733;SDS011;65660;53.288;14.666;2023-02-11T04:08:53;49.73;;;24.47;;
76733;SDS011;65660;53.288;14.666;2023-02-11T04:13:53;51.00;;;24.97;;
76733;SDS011;65660;53.288;14.666;2023-02-11T04:18:54;53.43;;;25.13;;
76733;SDS011;65660;53.288;14.666;2023-02-11T04:23:54;56.10;;;26.03;;
76733;SDS011;65660;53.288;14.666;2023-02-11T04:28:55;56.30;;;26.43;;
76733;SDS011;65660;53.288;14.666;2023-02-11T04:33:55;60.83;;;26.67;;
76733;SDS011;65660;53.288;14.666;2023-02-11T04:38:56;56.13;;;26.40;;
76733;SDS011;65660;53.288;14.666;2023-02-11T04:43:56;58.17;;;26.70;;
76733;SDS011;65660;53.288;14.666;2023-02-11T04:48:57;58.27;;;26.50;;
76733;SDS011;65660;53.288;14.666;2023-02-11T04:53:57;59.30;;;26.87;;
76733;SDS011;65660;53.288;14.666;2023-02-11T04:58:58;56.57;;;26.67;;
76733;SDS011;65660;53.288;14.666;2023-02-11T05:03:59;54.20;;;25.63;;
76733;SDS011;65660;53.288;14.666;2023-02-11T05:08:59;59.30;;;27.93;;
76733;SDS011;65660;53.288;14.666;2023-02-11T05:14:00;59.00;;;27.37;;
76733;SDS011;65660;53.288;14.666;2023-02-11T05:19:00;52.83;;;24.67;;
76733;SDS011;65660;53.288;14.666;2023-02-11T05:24:01;53.53;;;26.47;;
76733;SDS011;65660;53.288;14.666;2023-02-11T05:29:01;61.20;;;26.27;;
76733;SDS011;65660;53.288;14.666;2023-02-11T05:34:02;52.57;;;25.93;;
76733;SDS011;65660;53.288;14.666;2023-02-11T05:39:02;58.53;;;28.03;;
76733;SDS011;65660;53.288;14.666;2023-02-11T05:44:03;61.27;;;27.50;;
76733;SDS011;65660;53.288;14.666;2023-02-11T05:49:04;60.40;;;26.77;;
76733;SDS011;65660;53.288;14.666;2023-02-11T05:54:04;57.73;;;26.17;;
76733;SDS011;65660;53.288;14.666;2023-02-11T05:59:05;57.10;;;26.87;;
76733;SDS011;65660;53.288;14.666;2023-02-11T06:04:05;56.40;;;26.37;;
76733;SDS011;65660;53.288;14.666;2023-02-11T06:09:06;61.33;;;28.53;;
76733;SDS011;65660;53.288;14.666;2023-02-11T06:14:06;54.63;;;25.57;;
76733;SDS011;65660;53.288;14.666;2023-02-11T06:19:07;56.83;;;26.93;;
76733;SDS011;65660;53.288;14.666;2023-02-11T06:24:07;55.67;;;26.67;;
76733;SDS011;65660;53.288;14.666;2023-02-11T06:29:08;52.33;;;25.97;;
76733;SDS011;65660;53.288;14.666;2023-02-11T06:34:08;55.87;;;25.57;;
76733;SDS011;65660;53.288;14.666;2023-02-11T06:39:09;56.67;;;27.33;;
76733;SDS011;65660;53.288;14.666;2023-02-11T06:44:10;56.57;;;27.30;;
76733;SDS011;65660;53.288;14.666;2023-02-11T06:49:11;60.03;;;27.47;;
76733;SDS011;65660;53.288;14.666;2023-02-11T06:54:11;58.10;;;26.40;;
76733;SDS011;65660;53.288;14.666;2023-02-11T06:59:15;54.53;;;25.97;;
76733;SDS011;65660;53.288;14.666;2023-02-11T07:04:16;57.90;;;27.03;;
76733;SDS011;65660;53.288;14.666;2023-02-11T07:09:17;60.87;;;27.23;;
76733;SDS011;65660;53.288;14.666;2023-02-11T07:14:17;59.07;;;26.80;;
76733;SDS011;65660;53.288;14.666;2023-02-11T07:19:18;54.33;;;25.63;;
76733;SDS011;65660;53.288;14.666;2023-02-11T07:24:18;55.00;;;25.70;;
76733;SDS011;65660;53.288;14.666;2023-02-11T07:29:19;54.33;;;25.40;;
76733;SDS011;65660;53.288;14.666;2023-02-11T07:34:19;56.33;;;26.10;;
76733;SDS011;65660;53.288;14.666;2023-02-11T07:39:20;58.93;;;26.70;;
76733;SDS011;65660;53.288;14.666;2023-02-11T07:44:20;57.97;;;25.97;;
76733;SDS011;65660;53.288;14.666;2023-02-11T07:49:21;62.47;;;26.50;;
76733;SDS011;65660;53.288;14.666;2023-02-11T07:54:22;59.40;;;26.23;;
76733;SDS011;65660;53.288;14.666;2023-02-11T07:59:22;57.60;;;24.87;;
76733;SDS011;65660;53.288;14.666;2023-02-11T08:04:23;55.03;;;24.43;;
76733;SDS011;65660;53.288;14.666;2023-02-11T08:09:23;51.97;;;23.43;;
76733;SDS011;65660;53.288;14.666;2023-02-11T08:14:24;48.87;;;23.07;;
76733;SDS011;65660;53.288;14.666;2023-02-11T08:19:24;48.57;;;22.77;;
76733;SDS011;65660;53.288;14.666;2023-02-11T08:24:25;48.43;;;22.87;;
76733;SDS011;65660;53.288;14.666;2023-02-11T08:29:25;46.57;;;22.30;;
76733;SDS011;65660;53.288;14.666;2023-02-11T08:34:25;47.93;;;22.63;;
76733;SDS011;65660;53.288;14.666;2023-02-11T08:39:26;48.37;;;22.83;;
76733;SDS011;65660;53.288;14.666;2023-02-11T08:44:26;48.57;;;21.10;;
76733;SDS011;65660;53.288;14.666;2023-02-11T08:49:27;48.00;;;22.37;;
76733;SDS011;65660;53.288;14.666;2023-02-11T08:54:27;45.23;;;21.37;;
76733;SDS011;65660;53.288;14.666;2023-02-11T08:59:28;48.57;;;22.07;;
76733;SDS011;65660;53.288;14.666;2023-02-11T09:04:29;49.40;;;21.83;;
76733;SDS011;65660;53.288;14.666;2023-02-11T09:09:29;52.43;;;23.57;;
76733;SDS011;65660;53.288;14.666;2023-02-11T09:14:30;51.37;;;23.73;;
76733;SDS011;65660;53.288;14.666;2023-02-11T09:19:30;49.07;;;23.53;;
76733;SDS011;65660;53.288;14.666;2023-02-11T09:24:31;54.33;;;23.67;;
76733;SDS011;65660;53.288;14.666;2023-02-11T09:29:31;54.03;;;24.30;;
76733;SDS011;65660;53.288;14.666;2023-02-11T09:34:32;51.83;;;23.93;;
76733;SDS011;65660;53.288;14.666;2023-02-11T09:39:32;56.63;;;24.60;;
76733;SDS011;65660;53.288;14.666;2023-02-11T09:44:33;52.17;;;25.00;;
76733;SDS011;65660;53.288;14.666;2023-02-11T09:49:40;55.10;;;25.43;;
76733;SDS011;65660;53.288;14.666;2023-02-11T09:54:54;61.33;;;24.80;;
76733;SDS011;65660;53.288;14.666;2023-02-11T09:59:59;61.37;;;25.97;;
76733;SDS011;65660;53.288;14.666;2023-02-11T10:05:16;55.67;;;24.97;;
76733;SDS011;65660;53.288;14.666;2023-02-11T10:10:51;54.67;;;22.30;;
76733;SDS011;65660;53.288;14.666;2023-02-11T10:21:44;45.63;;;21.00;;
76733;SDS011;65660;53.288;14.666;2023-02-11T10:26:51;43.27;;;21.23;;
76733;SDS011;65660;53.288;14.666;2023-02-11T10:31:51;40.33;;;20.37;;
76733;SDS011;65660;53.288;14.666;2023-02-11T10:36:52;38.67;;;18.10;;
76733;SDS011;65660;53.288;14.666;2023-02-11T10:42:00;41.97;;;18.70;;
76733;SDS011;65660;53.288;14.666;2023-02-11T10:47:08;33.67;;;17.30;;
76733;SDS011;65660;53.288;14.666;2023-02-11T10:57:18;30.97;;;15.90;;
76733;SDS011;65660;53.288;14.666;2023-02-11T11:02:22;33.07;;;15.13;;
76733;SDS011;65660;53.288;14.666;2023-02-11T11:07:30;31.43;;;14.77;;
76733;SDS011;65660;53.288;14.666;2023-02-11T11:17:45;26.57;;;13.60;;
76733;SDS011;65660;53.288;14.666;2023-02-11T11:22:46;27.00;;;13.70;;
76733;SDS011;65660;53.288;14.666;2023-02-11T11:27:52;28.30;;;12.90;;
76733;SDS011;65660;53.288;14.666;2023-02-11T11:32:54;28.23;;;12.60;;
76733;SDS011;65660;53.288;14.666;2023-02-11T11:37:58;28.80;;;13.00;;
76733;SDS011;65660;53.288;14.666;2023-02-11T11:43:02;22.07;;;11.53;;
76733;SDS011;65660;53.288;14.666;2023-02-11T11:48:15;19.83;;;10.63;;
76733;SDS011;65660;53.288;14.666;2023-02-11T11:58:30;15.83;;;9.63;;
76733;SDS011;65660;53.288;14.666;2023-02-11T12:36:41;9.63;;;6.00;;
76733;SDS011;65660;53.288;14.666;2023-02-11T12:41:50;9.43;;;5.50;;
76733;SDS011;65660;53.288;14.666;2023-02-11T12:52:38;9.70;;;5.40;;
76733;SDS011;65660;53.288;14.666;2023-02-11T12:57:41;9.00;;;5.07;;
76733;SDS011;65660;53.288;14.666;2023-02-11T13:07:46;7.20;;;4.50;;
76733;SDS011;65660;53.288;14.666;2023-02-11T13:12:47;8.10;;;4.60;;
76733;SDS011;65660;53.288;14.666;2023-02-11T13:17:53;6.20;;;4.60;;
76733;SDS011;65660;53.288;14.666;2023-02-11T13:23:06;7.60;;;4.33;;
76733;SDS011;65660;53.288;14.666;2023-02-11T13:38:38;7.70;;;4.30;;
76733;SDS011;65660;53.288;14.666;2023-02-11T13:43:39;7.63;;;3.97;;
76733;SDS011;65660;53.288;14.666;2023-02-11T13:48:49;4.67;;;3.50;;
76733;SDS011;65660;53.288;14.666;2023-02-11T13:58:57;5.73;;;3.50;;
76733;SDS011;65660;53.288;14.666;2023-02-11T14:14:26;6.13;;;2.90;;
76733;SDS011;65660;53.288;14.666;2023-02-11T14:19:31;5.37;;;2.80;;
76733;SDS011;65660;53.288;14.666;2023-02-11T14:34:52;7.00;;;3.00;;
76733;SDS011;65660;53.288;14.666;2023-02-11T14:45:03;5.43;;;2.70;;
76733;SDS011;65660;53.288;14.666;2023-02-11T14:50:05;5.83;;;2.80;;
76733;SDS011;65660;53.288;14.666;2023-02-11T14:55:29;8.17;;;3.97;;
76733;SDS011;65660;53.288;14.666;2023-02-11T15:00:34;4.03;;;2.53;;
76733;SDS011;65660;53.288;14.666;2023-02-11T15:05:35;5.37;;;2.60;;
76733;SDS011;65660;53.288;14.666;2023-02-11T15:10:44;4.97;;;2.50;;
76733;SDS011;65660;53.288;14.666;2023-02-11T15:15:46;5.63;;;2.80;;
76733;SDS011;65660;53.288;14.666;2023-02-11T15:20:47;3.87;;;2.60;;
76733;SDS011;65660;53.288;14.666;2023-02-11T15:25:48;5.53;;;2.70;;
76733;SDS011;65660;53.288;14.666;2023-02-11T15:31:10;6.70;;;3.00;;
76733;SDS011;65660;53.288;14.666;2023-02-11T15:36:14;5.40;;;2.80;;
76733;SDS011;65660;53.288;14.666;2023-02-11T15:41:36;5.10;;;3.27;;
76733;SDS011;65660;53.288;14.666;2023-02-11T15:46:37;6.63;;;3.10;;
76733;SDS011;65660;53.288;14.666;2023-02-11T15:51:38;6.77;;;3.50;;
76733;SDS011;65660;53.288;14.666;2023-02-11T15:56:41;6.53;;;2.70;;
76733;SDS011;65660;53.288;14.666;2023-02-11T16:01:49;5.93;;;3.03;;
76733;SDS011;65660;53.288;14.666;2023-02-11T16:06:49;7.57;;;3.23;;
76733;SDS011;65660;53.288;14.666;2023-02-11T16:16:51;5.17;;;2.60;;
76733;SDS011;65660;53.288;14.666;2023-02-11T16:21:54;8.50;;;3.40;;
76733;SDS011;65660;53.288;14.666;2023-02-11T16:26:56;6.40;;;3.50;;
76733;SDS011;65660;53.288;14.666;2023-02-11T16:32:09;7.97;;;3.20;;
76733;SDS011;65660;53.288;14.666;2023-02-11T16:37:19;7.80;;;3.17;;
76733;SDS011;65660;53.288;14.666;2023-02-11T16:42:20;8.10;;;3.00;;
76733;SDS011;65660;53.288;14.666;2023-02-11T16:47:24;6.70;;;2.77;;
76733;SDS011;65660;53.288;14.666;2023-02-11T16:52:26;9.37;;;2.63;;
76733;SDS011;65660;53.288;14.666;2023-02-11T16:57:28;5.30;;;2.80;;
76733;SDS011;65660;53.288;14.666;2023-02-11T17:02:30;8.53;;;2.87;;
76733;SDS011;65660;53.288;14.666;2023-02-11T17:07:33;8.63;;;3.03;;
76733;SDS011;65660;53.288;14.666;2023-02-11T17:12:33;10.47;;;3.63;;
76733;SDS011;65660;53.288;14.666;2023-02-11T17:17:34;10.03;;;3.27;;
76733;SDS011;65660;53.288;14.666;2023-02-11T17:22:34;8.30;;;3.67;;
76733;SDS011;65660;53.288;14.666;2023-02-11T17:27:35;7.90;;;2.97;;
76733;SDS011;65660;53.288;14.666;2023-02-11T17:32:35;14.90;;;6.00;;
76733;SDS011;65660;53.288;14.666;2023-02-11T17:37:36;16.13;;;6.30;;
76733;SDS011;65660;53.288;14.666;2023-02-11T17:42:37;11.90;;;3.40;;
76733;SDS011;65660;53.288;14.666;2023-02-11T17:47:37;14.20;;;3.10;;
76733;SDS011;65660;53.288;14.666;2023-02-11T17:52:38;13.17;;;3.10;;
76733;SDS011;65660;53.288;14.666;2023-02-11T17:57:38;11.77;;;2.60;;
76733;SDS011;65660;53.288;14.666;2023-02-11T18:02:39;14.50;;;3.50;;
76733;SDS011;65660;53.288;14.666;2023-02-11T18:07:40;13.57;;;3.00;;
76733;SDS011;65660;53.288;14.666;2023-02-11T18:12:41;14.70;;;3.20;;
76733;SDS011;65660;53.288;14.666;2023-02-11T18:17:42;14.87;;;2.97;;
76733;SDS011;65660;53.288;14.666;2023-02-11T18:22:43;17.63;;;4.00;;
76733;SDS011;65660;53.288;14.666;2023-02-11T18:27:43;19.70;;;5.17;;
76733;SDS011;65660;53.288;14.666;2023-02-11T18:32:44;13.90;;;3.40;;
76733;SDS011;65660;53.288;14.666;2023-02-11T18:37:45;22.97;;;8.87;;
76733;SDS011;65660;53.288;14.666;2023-02-11T18:42:47;15.83;;;3.37;;
76733;SDS011;65660;53.288;14.666;2023-02-11T18:47:47;19.13;;;4.23;;
76733;SDS011;65660;53.288;14.666;2023-02-11T18:52:48;28.17;;;9.30;;
76733;SDS011;65660;53.288;14.666;2023-02-11T18:57:48;16.50;;;3.90;;
76733;SDS011;65660;53.288;14.666;2023-02-11T19:02:49;12.70;;;3.40;;
76733;SDS011;65660;53.288;14.666;2023-02-11T19:07:49;14.07;;;3.20;;
76733;SDS011;65660;53.288;14.666;2023-02-11T19:12:56;16.03;;;3.70;;
76733;SDS011;65660;53.288;14.666;2023-02-11T19:17:56;9.97;;;2.97;;
76733;SDS011;65660;53.288;14.666;2023-02-11T19:22:57;10.73;;;2.90;;
76733;SDS011;65660;53.288;14.666;2023-02-11T19:27:58;16.53;;;3.33;;
76733;SDS011;65660;53.288;14.666;2023-02-11T19:32:58;15.13;;;3.10;;
76733;SDS011;65660;53.288;14.666;2023-02-11T19:37:59;12.57;;;3.00;;
76733;SDS011;65660;53.288;14.666;2023-02-11T19:43:00;17.37;;;3.80;;
76733;SDS011;65660;53.288;14.666;2023-02-11T19:48:00;15.93;;;3.33;;
76733;SDS011;65660;53.288;14.666;2023-02-11T19:53:00;10.10;;;3.10;;
76733;SDS011;65660;53.288;14.666;2023-02-11T19:58:01;11.60;;;3.33;;
76733;SDS011;65660;53.288;14.666;2023-02-11T20:03:01;8.67;;;2.80;;
76733;SDS011;65660;53.288;14.666;2023-02-11T20:08:02;14.30;;;4.37;;
76733;SDS011;65660;53.288;14.666;2023-02-11T20:13:03;12.50;;;5.03;;
76733;SDS011;65660;53.288;14.666;2023-02-11T20:18:03;17.13;;;3.07;;
76733;SDS011;65660;53.288;14.666;2023-02-11T20:23:04;15.17;;;3.27;;
76733;SDS011;65660;53.288;14.666;2023-02-11T20:28:04;14.53;;;3.63;;
76733;SDS011;65660;53.288;14.666;2023-02-11T20:33:05;13.37;;;3.57;;
76733;SDS011;65660;53.288;14.666;2023-02-11T20:38:05;13.37;;;3.20;;
76733;SDS011;65660;53.288;14.666;2023-02-11T20:43:06;17.10;;;4.40;;
76733;SDS011;65660;53.288;14.666;2023-02-11T20:48:06;11.53;;;3.37;;
76733;SDS011;65660;53.288;14.666;2023-02-11T20:53:07;12.97;;;3.27;;
76733;SDS011;65660;53.288;14.666;2023-02-11T20:58:07;16.80;;;4.00;;
76733;SDS011;65660;53.288;14.666;2023-02-11T21:03:08;10.23;;;3.43;;
76733;SDS011;65660;53.288;14.666;2023-02-11T21:08:08;14.07;;;3.43;;
76733;SDS011;65660;53.288;14.666;2023-02-11T21:13:09;12.83;;;3.30;;
76733;SDS011;65660;53.288;14.666;2023-02-11T21:18:09;11.57;;;3.73;;
76733;SDS011;65660;53.288;14.666;2023-02-11T21:23:10;14.13;;;4.97;;
76733;SDS011;65660;53.288;14.666;2023-02-11T21:28:10;15.30;;;4.53;;
76733;SDS011;65660;53.288;14.666;2023-02-11T21:33:11;10.60;;;3.53;;
76733;SDS011;65660;53.288;14.666;2023-02-11T21:38:11;17.43;;;5.23;;
76733;SDS011;65660;53.288;14.666;2023-02-11T21:43:12;13.60;;;5.50;;
76733;SDS011;65660;53.288;14.666;2023-02-11T21:48:12;14.00;;;4.43;;
76733;SDS011;65660;53.288;14.666;2023-02-11T21:53:13;17.27;;;4.73;;
76733;SDS011;65660;53.288;14.666;2023-02-11T21:58:13;18.17;;;4.80;;
76733;SDS011;65660;53.288;14.666;2023-02-11T22:03:14;24.53;;;6.60;;
76733;SDS011;65660;53.288;14.666;2023-02-11T22:08:14;22.13;;;6.30;;
76733;SDS011;65660;53.288;14.666;2023-02-11T22:13:15;15.37;;;4.40;;
76733;SDS011;65660;53.288;14.666;2023-02-11T22:18:16;15.63;;;4.47;;
76733;SDS011;65660;53.288;14.666;2023-02-11T22:23:16;13.63;;;4.20;;
76733;SDS011;65660;53.288;14.666;2023-02-11T22:28:17;18.03;;;4.47;;
76733;SDS011;65660;53.288;14.666;2023-02-11T22:33:17;20.37;;;4.97;;
76733;SDS011;65660;53.288;14.666;2023-02-11T22:38:18;18.00;;;4.50;;
76733;SDS011;65660;53.288;14.666;2023-02-11T22:43:18;15.93;;;3.27;;
76733;SDS011;65660;53.288;14.666;2023-02-11T22:48:19;13.77;;;3.70;;
76733;SDS011;65660;53.288;14.666;2023-02-11T22:53:19;10.63;;;2.83;;
76733;SDS011;65660;53.288;14.666;2023-02-11T22:58:20;11.93;;;3.43;;
76733;SDS011;65660;53.288;14.666;2023-02-11T23:03:20;9.80;;;2.90;;
76733;SDS011;65660;53.288;14.666;2023-02-11T23:08:21;13.57;;;4.00;;
76733;SDS011;65660;53.288;14.666;2023-02-11T23:13:21;12.30;;;3.20;;
76733;SDS011;65660;53.288;14.666;2023-02-11T23:18:21;11.77;;;3.17;;
76733;SDS011;65660;53.288;14.666;2023-02-11T23:23:22;12.30;;;3.53;;
76733;SDS011;65660;53.288;14.666;2023-02-11T23:28:22;10.67;;;3.40;;
76733;SDS011;65660;53.288;14.666;2023-02-11T23:33:23;14.83;;;3.90;;
76733;SDS011;65660;53.288;14.666;2023-02-11T23:38:23;10.50;;;3.60;;
76733;SDS011;65660;53.288;14.666;2023-02-11T23:43:24;9.43;;;3.90;;
76733;SDS011;65660;53.288;14.666;2023-02-11T23:48:24;12.67;;;3.40;;
76733;SDS011;65660;53.288;14.666;2023-02-11T23:53:25;8.70;;;3.13;;
76733;SDS011;65660;53.288;14.666;2023-02-11T23:58:25;13.40;;;3.20;;
